Haines, AK

7:04 PM AKST on February 10, 2016 (GMT -0900)
Letnikof Cove | | Change Station
CLOSE
Current Station
Personal Weather Station
Location: Haines, AK
Elevation: 230 ft
Nearby Weather Stations

Elev 230 ft 59.17 °N, 135.39 °W | Updated 10 seconds ago

Overcast
Overcast
35.2 °F
Feels Like 35 °F
N
1.3
Wind Variable Wind from SW
Gusts 2.9 mph

Today
High -- | Low -- °F
--% Chance of Precip.
Yesterday
High -- | Low -- °F
Precip. -- in
Pressure 29.73 in
Visibility 10.0 miles
Clouds Overcast 5000 ft
Windchill 35 °F
Dew Point 32 °F
Humidity 89%
Rainfall 0.00 in
Snow Depth Not available.
7:50 AM 4:42 PM
Waxing Crescent, 9% visible
METAR PAHN 110354Z AUTO 30014KT 10SM UP OVC050 01/M01 A2972 RMK AO2 UPB0256E17B45RAB17E45 SLP067 P0000 T00061006 TSNO
Pressure 29.73 in
Visibility 10.0 miles
Clouds Overcast 5000 ft
Windchill 35 °F
Dew Point 32 °F
Humidity 89%
Rainfall 0.00 in
Snow Depth Not available.
7:50 AM 4:42 PM
Waxing Crescent, 9% visible
METAR PAHN 110354Z AUTO 30014KT 10SM UP OVC050 01/M01 A2972 RMK AO2 UPB0256E17B45RAB17E45 SLP067 P0000 T00061006 TSNO

10-Day Weather Forecast

Almanac

Astronomy

Feb. 10, 2016 Rise Set
Actual Time
Civil Twilight
Nautical Twilight
Astronomical Twilight
Moon
Length of Visible Light
Length of Day
Tomorrow will be .
, % of the Moon is Illuminated

Today's Extremes

State Highs State Lows

Community

WunderPhotos

Upload Photos

1,892,007 photos uploaded!

WunderBlog® & News

Nearby

Air Quality

  Air Quality AQ Index Pollutant
Not available.

Snow Depth

Station Depth Elevation

Earthquake Activity

City Distance Mag. Time & Date
Minimum magnitude displayed is 2.5.

Coastal Water Temperatures

Place Temperature

Stations

Nearby Weather Stations

Station Location Temp. Windchill Dew Point Humidity Wind Precip. Elev Updated Type
                   

Watches & Warnings

There are currently no watches in effect.